sensor_id;sensor_type;location;lat;lon;timestamp;temperature;humidity
58809;DHT22;44579;51.672;7.834;2022-10-18T00:01:08;17.30;90.10
58809;DHT22;44579;51.672;7.834;2022-10-18T00:03:36;17.20;90.10
58809;DHT22;44579;51.672;7.834;2022-10-18T00:06:04;17.20;90.10
58809;DHT22;44579;51.672;7.834;2022-10-18T00:08:37;17.20;90.10
58809;DHT22;44579;51.672;7.834;2022-10-18T00:11:05;17.20;90.10
58809;DHT22;44579;51.672;7.834;2022-10-18T00:13:32;17.20;90.10
58809;DHT22;44579;51.672;7.834;2022-10-18T00:16:02;17.20;90.20
58809;DHT22;44579;51.672;7.834;2022-10-18T00:18:30;17.20;90.20
58809;DHT22;44579;51.672;7.834;2022-10-18T00:21:03;17.20;90.20
58809;DHT22;44579;51.672;7.834;2022-10-18T00:23:32;17.20;90.20
58809;DHT22;44579;51.672;7.834;2022-10-18T00:26:14;17.20;90.20
58809;DHT22;44579;51.672;7.834;2022-10-18T00:28:43;17.20;90.30
58809;DHT22;44579;51.672;7.834;2022-10-18T00:31:17;17.20;90.30
58809;DHT22;44579;51.672;7.834;2022-10-18T00:33:50;17.20;90.30
58809;DHT22;44579;51.672;7.834;2022-10-18T00:36:20;17.20;90.30
58809;DHT22;44579;51.672;7.834;2022-10-18T00:38:49;17.20;90.40
58809;DHT22;44579;51.672;7.834;2022-10-18T00:41:20;17.20;90.40
58809;DHT22;44579;51.672;7.834;2022-10-18T00:43:53;17.20;90.40
58809;DHT22;44579;51.672;7.834;2022-10-18T00:46:21;17.20;90.40
58809;DHT22;44579;51.672;7.834;2022-10-18T00:48:49;17.20;90.40
58809;DHT22;44579;51.672;7.834;2022-10-18T00:51:19;17.20;90.40
58809;DHT22;44579;51.672;7.834;2022-10-18T00:53:47;17.20;90.40
58809;DHT22;44579;51.672;7.834;2022-10-18T00:56:14;17.20;90.40
58809;DHT22;44579;51.672;7.834;2022-10-18T00:58:43;17.20;90.40
58809;DHT22;44579;51.672;7.834;2022-10-18T01:01:12;17.20;90.40
58809;DHT22;44579;51.672;7.834;2022-10-18T01:03:41;17.20;90.40
58809;DHT22;44579;51.672;7.834;2022-10-18T01:06:08;17.20;90.40
58809;DHT22;44579;51.672;7.834;2022-10-18T01:22:04;17.10;90.40
58809;DHT22;44579;51.672;7.834;2022-10-18T01:27:55;17.10;90.50
58809;DHT22;44579;51.672;7.834;2022-10-18T01:32:56;17.00;90.50
58809;DHT22;44579;51.672;7.834;2022-10-18T01:35:36;17.00;90.50
58809;DHT22;44579;51.672;7.834;2022-10-18T01:38:08;17.10;90.50
58809;DHT22;44579;51.672;7.834;2022-10-18T01:40:40;17.00;90.40
58809;DHT22;44579;51.672;7.834;2022-10-18T01:43:08;17.10;90.40
58809;DHT22;44579;51.672;7.834;2022-10-18T01:45:36;17.10;90.40
58809;DHT22;44579;51.672;7.834;2022-10-18T01:48:05;17.10;90.40
58809;DHT22;44579;51.672;7.834;2022-10-18T01:50:33;17.10;90.40
58809;DHT22;44579;51.672;7.834;2022-10-18T01:53:01;17.00;90.40
58809;DHT22;44579;51.672;7.834;2022-10-18T01:55:50;17.00;90.50
58809;DHT22;44579;51.672;7.834;2022-10-18T01:58:34;17.00;90.50
58809;DHT22;44579;51.672;7.834;2022-10-18T02:01:07;17.00;90.50
58809;DHT22;44579;51.672;7.834;2022-10-18T02:03:42;17.00;90.60
58809;DHT22;44579;51.672;7.834;2022-10-18T02:06:24;17.00;90.60
58809;DHT22;44579;51.672;7.834;2022-10-18T02:09:08;17.00;90.60
58809;DHT22;44579;51.672;7.834;2022-10-18T02:11:38;17.00;90.60
58809;DHT22;44579;51.672;7.834;2022-10-18T02:14:12;16.90;90.60
58809;DHT22;44579;51.672;7.834;2022-10-18T02:16:43;16.90;90.60
58809;DHT22;44579;51.672;7.834;2022-10-18T02:19:31;16.90;90.60
58809;DHT22;44579;51.672;7.834;2022-10-18T02:22:00;16.90;90.60
58809;DHT22;44579;51.672;7.834;2022-10-18T02:24:48;16.90;90.60
58809;DHT22;44579;51.672;7.834;2022-10-18T02:27:17;16.90;90.60
58809;DHT22;44579;51.672;7.834;2022-10-18T02:29:45;16.90;90.60
58809;DHT22;44579;51.672;7.834;2022-10-18T02:32:33;16.90;90.70
58809;DHT22;44579;51.672;7.834;2022-10-18T02:35:13;16.90;90.70
58809;DHT22;44579;51.672;7.834;2022-10-18T02:37:46;16.90;90.70
58809;DHT22;44579;51.672;7.834;2022-10-18T02:40:14;16.90;91.00
58809;DHT22;44579;51.672;7.834;2022-10-18T02:42:50;16.90;90.60
58809;DHT22;44579;51.672;7.834;2022-10-18T02:45:20;16.90;90.70
58809;DHT22;44579;51.672;7.834;2022-10-18T02:47:47;16.90;90.70
58809;DHT22;44579;51.672;7.834;2022-10-18T02:50:14;16.90;90.60
58809;DHT22;44579;51.672;7.834;2022-10-18T02:52:42;16.90;91.00
58809;DHT22;44579;51.672;7.834;2022-10-18T02:55:10;16.90;90.60
58809;DHT22;44579;51.672;7.834;2022-10-18T02:57:37;16.90;90.70
58809;DHT22;44579;51.672;7.834;2022-10-18T03:00:05;16.90;90.70
58809;DHT22;44579;51.672;7.834;2022-10-18T03:02:33;16.80;90.70
58809;DHT22;44579;51.672;7.834;2022-10-18T03:05:00;16.90;90.70
58809;DHT22;44579;51.672;7.834;2022-10-18T03:07:27;16.90;90.70
58809;DHT22;44579;51.672;7.834;2022-10-18T03:09:56;16.90;90.70
58809;DHT22;44579;51.672;7.834;2022-10-18T03:12:23;16.90;90.70
58809;DHT22;44579;51.672;7.834;2022-10-18T03:14:50;16.90;90.70
58809;DHT22;44579;51.672;7.834;2022-10-18T03:17:18;16.80;90.80
58809;DHT22;44579;51.672;7.834;2022-10-18T03:19:45;16.80;90.90
58809;DHT22;44579;51.672;7.834;2022-10-18T03:22:13;16.80;90.90
58809;DHT22;44579;51.672;7.834;2022-10-18T03:24:40;16.80;90.80
58809;DHT22;44579;51.672;7.834;2022-10-18T03:27:08;16.70;90.80
58809;DHT22;44579;51.672;7.834;2022-10-18T03:29:35;16.70;90.80
58809;DHT22;44579;51.672;7.834;2022-10-18T03:32:02;16.80;90.90
58809;DHT22;44579;51.672;7.834;2022-10-18T03:34:30;16.80;90.80
58809;DHT22;44579;51.672;7.834;2022-10-18T03:36:57;16.80;90.80
58809;DHT22;44579;51.672;7.834;2022-10-18T03:39:30;16.80;90.70
58809;DHT22;44579;51.672;7.834;2022-10-18T03:41:57;16.80;90.70
58809;DHT22;44579;51.672;7.834;2022-10-18T03:44:24;16.80;90.80
58809;DHT22;44579;51.672;7.834;2022-10-18T03:46:51;16.80;90.80
58809;DHT22;44579;51.672;7.834;2022-10-18T03:49:19;16.80;90.80
58809;DHT22;44579;51.672;7.834;2022-10-18T03:51:46;16.80;90.80
58809;DHT22;44579;51.672;7.834;2022-10-18T03:54:14;16.80;90.90
58809;DHT22;44579;51.672;7.834;2022-10-18T03:56:41;16.80;90.90
58809;DHT22;44579;51.672;7.834;2022-10-18T03:59:08;16.70;90.90
58809;DHT22;44579;51.672;7.834;2022-10-18T04:01:35;16.70;90.90
58809;DHT22;44579;51.672;7.834;2022-10-18T04:04:05;16.70;90.90
58809;DHT22;44579;51.672;7.834;2022-10-18T04:06:32;16.80;90.90
58809;DHT22;44579;51.672;7.834;2022-10-18T04:08:59;16.80;90.90
58809;DHT22;44579;51.672;7.834;2022-10-18T04:11:28;16.70;90.90
58809;DHT22;44579;51.672;7.834;2022-10-18T04:13:56;16.70;90.90
58809;DHT22;44579;51.672;7.834;2022-10-18T04:16:23;16.70;90.90
58809;DHT22;44579;51.672;7.834;2022-10-18T04:18:51;16.70;90.90
58809;DHT22;44579;51.672;7.834;2022-10-18T04:21:19;16.80;90.90
58809;DHT22;44579;51.672;7.834;2022-10-18T04:23:47;16.80;90.90
58809;DHT22;44579;51.672;7.834;2022-10-18T04:26:15;16.80;90.90
58809;DHT22;44579;51.672;7.834;2022-10-18T04:28:43;16.80;91.00
58809;DHT22;44579;51.672;7.834;2022-10-18T04:31:10;16.80;91.00
58809;DHT22;44579;51.672;7.834;2022-10-18T04:33:37;16.80;91.00
58809;DHT22;44579;51.672;7.834;2022-10-18T04:36:05;16.80;91.00
58809;DHT22;44579;51.672;7.834;2022-10-18T04:38:32;16.80;91.00
58809;DHT22;44579;51.672;7.834;2022-10-18T04:41:00;16.80;91.10
58809;DHT22;44579;51.672;7.834;2022-10-18T04:43:27;16.70;91.00
58809;DHT22;44579;51.672;7.834;2022-10-18T04:45:54;16.70;91.20
58809;DHT22;44579;51.672;7.834;2022-10-18T04:48:21;16.70;91.10
58809;DHT22;44579;51.672;7.834;2022-10-18T04:50:49;16.70;91.20
58809;DHT22;44579;51.672;7.834;2022-10-18T04:53:17;16.70;91.20
58809;DHT22;44579;51.672;7.834;2022-10-18T04:55:48;16.60;91.30
58809;DHT22;44579;51.672;7.834;2022-10-18T04:58:16;16.70;91.30
58809;DHT22;44579;51.672;7.834;2022-10-18T05:00:44;16.70;91.20
58809;DHT22;44579;51.672;7.834;2022-10-18T05:03:12;16.70;91.20
58809;DHT22;44579;51.672;7.834;2022-10-18T05:05:42;16.80;91.10
58809;DHT22;44579;51.672;7.834;2022-10-18T05:08:31;16.70;91.10
58809;DHT22;44579;51.672;7.834;2022-10-18T05:11:08;16.70;91.10
58809;DHT22;44579;51.672;7.834;2022-10-18T05:13:37;16.70;91.10
58809;DHT22;44579;51.672;7.834;2022-10-18T05:16:08;16.70;91.10
58809;DHT22;44579;51.672;7.834;2022-10-18T05:18:37;16.70;91.10
58809;DHT22;44579;51.672;7.834;2022-10-18T05:21:04;16.70;91.10
58809;DHT22;44579;51.672;7.834;2022-10-18T05:23:31;16.70;91.20
58809;DHT22;44579;51.672;7.834;2022-10-18T05:26:05;16.70;91.20
58809;DHT22;44579;51.672;7.834;2022-10-18T05:28:33;16.70;91.20
58809;DHT22;44579;51.672;7.834;2022-10-18T05:31:08;16.70;91.10
58809;DHT22;44579;51.672;7.834;2022-10-18T05:33:35;16.70;91.10
58809;DHT22;44579;51.672;7.834;2022-10-18T05:36:03;16.70;91.10
58809;DHT22;44579;51.672;7.834;2022-10-18T05:38:30;16.70;91.10
58809;DHT22;44579;51.672;7.834;2022-10-18T05:40:58;16.70;91.20
58809;DHT22;44579;51.672;7.834;2022-10-18T05:43:29;16.70;91.20
58809;DHT22;44579;51.672;7.834;2022-10-18T05:45:56;16.70;91.10
58809;DHT22;44579;51.672;7.834;2022-10-18T05:48:23;16.70;91.10
58809;DHT22;44579;51.672;7.834;2022-10-18T05:50:50;16.70;91.10
58809;DHT22;44579;51.672;7.834;2022-10-18T05:53:17;16.70;91.10
58809;DHT22;44579;51.672;7.834;2022-10-18T05:56:03;16.70;91.10
58809;DHT22;44579;51.672;7.834;2022-10-18T05:58:30;16.70;91.10
58809;DHT22;44579;51.672;7.834;2022-10-18T06:01:01;16.70;91.20
58809;DHT22;44579;51.672;7.834;2022-10-18T06:03:29;16.60;91.20
58809;DHT22;44579;51.672;7.834;2022-10-18T06:06:04;16.70;91.30
58809;DHT22;44579;51.672;7.834;2022-10-18T06:08:34;16.70;91.30
58809;DHT22;44579;51.672;7.834;2022-10-18T06:11:10;16.70;91.30
58809;DHT22;44579;51.672;7.834;2022-10-18T06:13:45;16.70;91.20
58809;DHT22;44579;51.672;7.834;2022-10-18T06:16:14;16.70;91.20
58809;DHT22;44579;51.672;7.834;2022-10-18T06:18:45;16.70;91.30
58809;DHT22;44579;51.672;7.834;2022-10-18T06:21:12;16.70;91.30
58809;DHT22;44579;51.672;7.834;2022-10-18T06:23:40;16.70;91.30
58809;DHT22;44579;51.672;7.834;2022-10-18T06:26:09;16.70;91.40
58809;DHT22;44579;51.672;7.834;2022-10-18T06:28:37;16.70;91.40
58809;DHT22;44579;51.672;7.834;2022-10-18T06:31:04;16.70;91.40
58809;DHT22;44579;51.672;7.834;2022-10-18T06:33:33;16.70;91.40
58809;DHT22;44579;51.672;7.834;2022-10-18T06:36:02;16.70;91.50
58809;DHT22;44579;51.672;7.834;2022-10-18T06:38:30;16.70;91.50
58809;DHT22;44579;51.672;7.834;2022-10-18T06:40:58;16.70;91.50
58809;DHT22;44579;51.672;7.834;2022-10-18T06:43:25;16.70;91.50
58809;DHT22;44579;51.672;7.834;2022-10-18T06:45:53;16.70;91.60
58809;DHT22;44579;51.672;7.834;2022-10-18T06:48:20;16.80;91.60
58809;DHT22;44579;51.672;7.834;2022-10-18T06:50:56;16.80;91.90
58809;DHT22;44579;51.672;7.834;2022-10-18T06:53:24;16.80;91.50
58809;DHT22;44579;51.672;7.834;2022-10-18T06:55:57;16.80;91.50
58809;DHT22;44579;51.672;7.834;2022-10-18T06:58:24;16.90;91.50
58809;DHT22;44579;51.672;7.834;2022-10-18T07:00:51;16.90;91.90
58809;DHT22;44579;51.672;7.834;2022-10-18T07:03:18;16.90;91.50
58809;DHT22;44579;51.672;7.834;2022-10-18T07:05:48;16.90;91.50
58809;DHT22;44579;51.672;7.834;2022-10-18T07:08:16;16.80;91.50
58809;DHT22;44579;51.672;7.834;2022-10-18T07:10:49;16.90;91.50
58809;DHT22;44579;51.672;7.834;2022-10-18T07:13:16;16.90;91.50
58809;DHT22;44579;51.672;7.834;2022-10-18T07:16:06;16.80;91.60
58809;DHT22;44579;51.672;7.834;2022-10-18T07:18:43;16.80;91.50
58809;DHT22;44579;51.672;7.834;2022-10-18T07:21:13;16.80;91.50
58809;DHT22;44579;51.672;7.834;2022-10-18T07:23:41;16.80;91.50
58809;DHT22;44579;51.672;7.834;2022-10-18T07:26:24;16.80;91.50
58809;DHT22;44579;51.672;7.834;2022-10-18T07:29:00;16.80;91.50
58809;DHT22;44579;51.672;7.834;2022-10-18T07:31:28;16.80;91.50
58809;DHT22;44579;51.672;7.834;2022-10-18T07:33:55;16.80;91.60
58809;DHT22;44579;51.672;7.834;2022-10-18T07:36:22;16.80;91.50
58809;DHT22;44579;51.672;7.834;2022-10-18T07:38:53;16.80;91.60
58809;DHT22;44579;51.672;7.834;2022-10-18T07:41:20;16.80;91.60
58809;DHT22;44579;51.672;7.834;2022-10-18T07:43:49;16.80;91.60
58809;DHT22;44579;51.672;7.834;2022-10-18T07:46:20;16.80;91.60
58809;DHT22;44579;51.672;7.834;2022-10-18T07:48:48;16.80;91.70
58809;DHT22;44579;51.672;7.834;2022-10-18T07:51:16;16.80;91.60
58809;DHT22;44579;51.672;7.834;2022-10-18T07:53:43;16.80;91.60
58809;DHT22;44579;51.672;7.834;2022-10-18T07:56:13;16.80;91.60
58809;DHT22;44579;51.672;7.834;2022-10-18T07:58:48;16.80;91.60
58809;DHT22;44579;51.672;7.834;2022-10-18T08:01:17;16.80;91.60
58809;DHT22;44579;51.672;7.834;2022-10-18T08:03:45;16.90;91.60
58809;DHT22;44579;51.672;7.834;2022-10-18T08:06:13;16.90;91.60
58809;DHT22;44579;51.672;7.834;2022-10-18T08:08:42;16.90;91.60
58809;DHT22;44579;51.672;7.834;2022-10-18T08:11:12;16.90;91.60
58809;DHT22;44579;51.672;7.834;2022-10-18T08:13:41;16.90;91.60
58809;DHT22;44579;51.672;7.834;2022-10-18T08:16:13;17.00;91.70
58809;DHT22;44579;51.672;7.834;2022-10-18T08:18:40;17.00;91.70
58809;DHT22;44579;51.672;7.834;2022-10-18T08:21:09;17.00;91.70
58809;DHT22;44579;51.672;7.834;2022-10-18T08:23:37;16.90;92.00
58809;DHT22;44579;51.672;7.834;2022-10-18T08:26:07;16.90;91.70
58809;DHT22;44579;51.672;7.834;2022-10-18T08:28:35;16.90;91.70
58809;DHT22;44579;51.672;7.834;2022-10-18T08:31:08;16.90;91.70
58809;DHT22;44579;51.672;7.834;2022-10-18T08:33:36;16.90;91.70
58809;DHT22;44579;51.672;7.834;2022-10-18T08:36:05;17.00;91.80
58809;DHT22;44579;51.672;7.834;2022-10-18T08:38:34;16.90;91.80
58809;DHT22;44579;51.672;7.834;2022-10-18T08:44:16;16.90;91.90
58809;DHT22;44579;51.672;7.834;2022-10-18T08:46:57;17.00;92.00
58809;DHT22;44579;51.672;7.834;2022-10-18T08:49:36;17.00;92.00
58809;DHT22;44579;51.672;7.834;2022-10-18T08:52:18;17.00;92.00
58809;DHT22;44579;51.672;7.834;2022-10-18T08:55:16;16.90;92.00
58809;DHT22;44579;51.672;7.834;2022-10-18T08:57:46;17.00;92.10
58809;DHT22;44579;51.672;7.834;2022-10-18T09:00:19;16.90;92.20
58809;DHT22;44579;51.672;7.834;2022-10-18T09:05:44;17.00;92.30
58809;DHT22;44579;51.672;7.834;2022-10-18T09:13:57;16.90;92.40
58809;DHT22;44579;51.672;7.834;2022-10-18T09:16:38;16.80;92.50
58809;DHT22;44579;51.672;7.834;2022-10-18T09:25:54;16.80;92.70
58809;DHT22;44579;51.672;7.834;2022-10-18T09:28:23;16.90;92.80
58809;DHT22;44579;51.672;7.834;2022-10-18T09:31:17;16.90;92.80
58809;DHT22;44579;51.672;7.834;2022-10-18T09:36:34;17.10;92.90
58809;DHT22;44579;51.672;7.834;2022-10-18T09:39:30;17.10;93.20
58809;DHT22;44579;51.672;7.834;2022-10-18T09:45:01;17.30;92.60
58809;DHT22;44579;51.672;7.834;2022-10-18T09:47:33;17.50;92.50
58809;DHT22;44579;51.672;7.834;2022-10-18T09:50:18;17.50;92.50
58809;DHT22;44579;51.672;7.834;2022-10-18T09:53:00;17.50;92.40
58809;DHT22;44579;51.672;7.834;2022-10-18T09:55:35;17.60;92.40
58809;DHT22;44579;51.672;7.834;2022-10-18T09:58:05;17.70;92.30
58809;DHT22;44579;51.672;7.834;2022-10-18T10:00:40;17.80;92.30
58809;DHT22;44579;51.672;7.834;2022-10-18T10:03:12;17.90;92.10
58809;DHT22;44579;51.672;7.834;2022-10-18T10:05:41;18.00;92.00
58809;DHT22;44579;51.672;7.834;2022-10-18T10:08:09;18.10;92.00
58809;DHT22;44579;51.672;7.834;2022-10-18T10:10:44;18.20;91.90
58809;DHT22;44579;51.672;7.834;2022-10-18T10:13:17;18.20;91.80
58809;DHT22;44579;51.672;7.834;2022-10-18T10:15:59;18.10;91.80
58809;DHT22;44579;51.672;7.834;2022-10-18T10:18:30;18.10;91.90
58809;DHT22;44579;51.672;7.834;2022-10-18T10:21:05;18.10;91.90
58809;DHT22;44579;51.672;7.834;2022-10-18T10:23:43;18.20;91.90
58809;DHT22;44579;51.672;7.834;2022-10-18T10:26:34;18.30;91.90
58809;DHT22;44579;51.672;7.834;2022-10-18T10:29:46;18.30;91.70
58809;DHT22;44579;51.672;7.834;2022-10-18T10:32:16;18.40;91.70
58809;DHT22;44579;51.672;7.834;2022-10-18T10:34:44;18.50;91.60
58809;DHT22;44579;51.672;7.834;2022-10-18T10:40:06;18.50;91.50
58809;DHT22;44579;51.672;7.834;2022-10-18T10:46:00;18.50;91.60
58809;DHT22;44579;51.672;7.834;2022-10-18T10:48:32;18.50;91.70
58809;DHT22;44579;51.672;7.834;2022-10-18T10:51:06;18.50;91.60
58809;DHT22;44579;51.672;7.834;2022-10-18T10:56:27;18.40;91.40
58809;DHT22;44579;51.672;7.834;2022-10-18T10:58:57;18.40;91.40
58809;DHT22;44579;51.672;7.834;2022-10-18T11:01:31;18.40;91.40
58809;DHT22;44579;51.672;7.834;2022-10-18T11:04:02;18.50;91.30
58809;DHT22;44579;51.672;7.834;2022-10-18T11:06:36;18.50;91.10
58809;DHT22;44579;51.672;7.834;2022-10-18T11:20:37;18.40;91.00
58809;DHT22;44579;51.672;7.834;2022-10-18T11:23:11;18.30;91.00
58809;DHT22;44579;51.672;7.834;2022-10-18T11:25:45;18.30;91.00
58809;DHT22;44579;51.672;7.834;2022-10-18T11:37:13;18.70;90.90
58809;DHT22;44579;51.672;7.834;2022-10-18T11:48:43;18.60;90.60
58809;DHT22;44579;51.672;7.834;2022-10-18T11:51:34;18.50;90.50
58809;DHT22;44579;51.672;7.834;2022-10-18T11:54:35;18.40;90.30
58809;DHT22;44579;51.672;7.834;2022-10-18T12:00:36;18.20;89.80
58809;DHT22;44579;51.672;7.834;2022-10-18T12:06:15;18.00;89.60
58809;DHT22;44579;51.672;7.834;2022-10-18T12:08:54;18.10;89.90
58809;DHT22;44579;51.672;7.834;2022-10-18T12:11:30;18.20;89.70
58809;DHT22;44579;51.672;7.834;2022-10-18T12:14:02;18.30;89.50
58809;DHT22;44579;51.672;7.834;2022-10-18T12:16:36;18.40;89.40
58809;DHT22;44579;51.672;7.834;2022-10-18T12:19:25;18.50;89.20
58809;DHT22;44579;51.672;7.834;2022-10-18T12:22:07;18.60;88.90
58809;DHT22;44579;51.672;7.834;2022-10-18T12:24:37;18.70;88.80
58809;DHT22;44579;51.672;7.834;2022-10-18T12:27:11;18.80;88.80
58809;DHT22;44579;51.672;7.834;2022-10-18T12:29:55;18.80;88.70
58809;DHT22;44579;51.672;7.834;2022-10-18T12:32:30;18.80;88.60
58809;DHT22;44579;51.672;7.834;2022-10-18T12:35:13;18.80;88.70
58809;DHT22;44579;51.672;7.834;2022-10-18T12:38:18;18.70;88.70
58809;DHT22;44579;51.672;7.834;2022-10-18T12:40:52;18.70;88.80
58809;DHT22;44579;51.672;7.834;2022-10-18T12:43:26;18.70;89.00
58809;DHT22;44579;51.672;7.834;2022-10-18T12:46:00;18.70;89.00
58809;DHT22;44579;51.672;7.834;2022-10-18T12:48:34;18.80;89.10
58809;DHT22;44579;51.672;7.834;2022-10-18T12:51:06;18.80;88.80
58809;DHT22;44579;51.672;7.834;2022-10-18T12:53:39;18.90;88.60
58809;DHT22;44579;51.672;7.834;2022-10-18T13:09:39;19.30;85.30
58809;DHT22;44579;51.672;7.834;2022-10-18T13:15:11;19.40;85.60
58809;DHT22;44579;51.672;7.834;2022-10-18T13:20:38;19.50;85.40
58809;DHT22;44579;51.672;7.834;2022-10-18T13:23:35;19.50;85.60
58809;DHT22;44579;51.672;7.834;2022-10-18T13:26:39;19.40;83.40
58809;DHT22;44579;51.672;7.834;2022-10-18T13:29:21;19.40;82.20
58809;DHT22;44579;51.672;7.834;2022-10-18T13:32:13;19.20;80.10
58809;DHT22;44579;51.672;7.834;2022-10-18T13:34:47;19.20;80.80
58809;DHT22;44579;51.672;7.834;2022-10-18T13:39:42;19.20;80.80
58809;DHT22;44579;51.672;7.834;2022-10-18T13:44:42;19.30;79.20
58809;DHT22;44579;51.672;7.834;2022-10-18T13:47:31;19.30;78.40
58809;DHT22;44579;51.672;7.834;2022-10-18T13:56:58;19.20;76.80
58809;DHT22;44579;51.672;7.834;2022-10-18T13:59:25;19.20;76.40
58809;DHT22;44579;51.672;7.834;2022-10-18T14:02:35;19.10;74.50
58809;DHT22;44579;51.672;7.834;2022-10-18T14:08:50;19.00;73.30
58809;DHT22;44579;51.672;7.834;2022-10-18T14:13:46;18.90;71.60
58809;DHT22;44579;51.672;7.834;2022-10-18T14:16:43;18.90;71.30
58809;DHT22;44579;51.672;7.834;2022-10-18T14:21:54;18.80;71.20
58809;DHT22;44579;51.672;7.834;2022-10-18T14:24:25;18.70;70.90
58809;DHT22;44579;51.672;7.834;2022-10-18T14:27:19;18.70;70.60
58809;DHT22;44579;51.672;7.834;2022-10-18T14:29:48;18.70;70.90
58809;DHT22;44579;51.672;7.834;2022-10-18T14:32:25;18.70;71.30
58809;DHT22;44579;51.672;7.834;2022-10-18T14:34:54;18.60;70.90
58809;DHT22;44579;51.672;7.834;2022-10-18T14:37:42;18.60;70.80
58809;DHT22;44579;51.672;7.834;2022-10-18T14:40:32;18.50;69.70
58809;DHT22;44579;51.672;7.834;2022-10-18T14:43:03;18.50;69.50
58809;DHT22;44579;51.672;7.834;2022-10-18T14:45:30;18.40;69.10
58809;DHT22;44579;51.672;7.834;2022-10-18T14:48:13;18.40;69.20
58809;DHT22;44579;51.672;7.834;2022-10-18T14:50:43;18.40;69.00
58809;DHT22;44579;51.672;7.834;2022-10-18T14:53:18;18.40;68.80
58809;DHT22;44579;51.672;7.834;2022-10-18T14:55:55;18.30;68.40
58809;DHT22;44579;51.672;7.834;2022-10-18T14:58:23;18.30;68.00
58809;DHT22;44579;51.672;7.834;2022-10-18T15:00:50;18.30;68.30
58809;DHT22;44579;51.672;7.834;2022-10-18T15:03:17;18.20;68.50
58809;DHT22;44579;51.672;7.834;2022-10-18T15:05:55;18.30;68.60
58809;DHT22;44579;51.672;7.834;2022-10-18T15:08:39;18.30;68.60
58809;DHT22;44579;51.672;7.834;2022-10-18T15:11:07;18.20;68.80
58809;DHT22;44579;51.672;7.834;2022-10-18T15:13:52;18.20;69.10
58809;DHT22;44579;51.672;7.834;2022-10-18T15:16:27;18.20;69.20
58809;DHT22;44579;51.672;7.834;2022-10-18T15:19:00;18.20;69.40
58809;DHT22;44579;51.672;7.834;2022-10-18T15:21:28;18.20;69.40
58809;DHT22;44579;51.672;7.834;2022-10-18T15:26:54;18.10;69.60
58809;DHT22;44579;51.672;7.834;2022-10-18T15:29:22;18.00;69.50
58809;DHT22;44579;51.672;7.834;2022-10-18T15:31:51;18.00;69.40
58809;DHT22;44579;51.672;7.834;2022-10-18T15:34:19;18.00;69.60
58809;DHT22;44579;51.672;7.834;2022-10-18T15:36:49;18.00;69.60
58809;DHT22;44579;51.672;7.834;2022-10-18T15:39:22;17.90;69.50
58809;DHT22;44579;51.672;7.834;2022-10-18T15:41:54;17.90;69.50
58809;DHT22;44579;51.672;7.834;2022-10-18T15:49:47;17.80;69.40
58809;DHT22;44579;51.672;7.834;2022-10-18T15:54:47;17.70;69.30
58809;DHT22;44579;51.672;7.834;2022-10-18T15:57:17;17.70;69.40
58809;DHT22;44579;51.672;7.834;2022-10-18T16:00:00;17.70;69.40
58809;DHT22;44579;51.672;7.834;2022-10-18T16:02:37;17.60;69.30
58809;DHT22;44579;51.672;7.834;2022-10-18T16:05:04;17.50;69.20
58809;DHT22;44579;51.672;7.834;2022-10-18T16:07:31;17.50;69.40
58809;DHT22;44579;51.672;7.834;2022-10-18T16:09:59;17.50;69.70
58809;DHT22;44579;51.672;7.834;2022-10-18T16:12:26;17.50;69.90
58809;DHT22;44579;51.672;7.834;2022-10-18T16:14:53;17.40;69.60
58809;DHT22;44579;51.672;7.834;2022-10-18T16:17:20;17.40;70.20
58809;DHT22;44579;51.672;7.834;2022-10-18T16:19:47;17.30;70.30
58809;DHT22;44579;51.672;7.834;2022-10-18T16:22:14;17.20;70.50
58809;DHT22;44579;51.672;7.834;2022-10-18T16:24:42;17.20;70.60
58809;DHT22;44579;51.672;7.834;2022-10-18T16:27:09;17.20;70.80
58809;DHT22;44579;51.672;7.834;2022-10-18T16:29:38;17.10;70.90
58809;DHT22;44579;51.672;7.834;2022-10-18T16:32:07;17.10;71.10
58809;DHT22;44579;51.672;7.834;2022-10-18T16:34:34;17.00;71.20
58809;DHT22;44579;51.672;7.834;2022-10-18T16:37:01;16.90;71.20
58809;DHT22;44579;51.672;7.834;2022-10-18T16:39:28;16.90;71.40
58809;DHT22;44579;51.672;7.834;2022-10-18T16:42:00;16.90;71.60
58809;DHT22;44579;51.672;7.834;2022-10-18T16:44:27;16.80;71.80
58809;DHT22;44579;51.672;7.834;2022-10-18T16:46:54;16.70;71.80
58809;DHT22;44579;51.672;7.834;2022-10-18T16:49:25;16.70;72.00
58809;DHT22;44579;51.672;7.834;2022-10-18T16:51:53;16.60;72.00
58809;DHT22;44579;51.672;7.834;2022-10-18T16:54:20;16.60;72.20
58809;DHT22;44579;51.672;7.834;2022-10-18T16:56:47;16.50;72.20
58809;DHT22;44579;51.672;7.834;2022-10-18T16:59:25;16.40;72.40
58809;DHT22;44579;51.672;7.834;2022-10-18T17:01:53;16.40;72.60
58809;DHT22;44579;51.672;7.834;2022-10-18T17:04:20;16.30;72.70
58809;DHT22;44579;51.672;7.834;2022-10-18T17:06:47;16.20;72.90
58809;DHT22;44579;51.672;7.834;2022-10-18T17:09:15;16.10;73.00
58809;DHT22;44579;51.672;7.834;2022-10-18T17:11:42;16.10;73.20
58809;DHT22;44579;51.672;7.834;2022-10-18T17:14:09;16.00;73.30
58809;DHT22;44579;51.672;7.834;2022-10-18T17:16:37;16.00;73.40
58809;DHT22;44579;51.672;7.834;2022-10-18T17:19:09;15.90;73.50
58809;DHT22;44579;51.672;7.834;2022-10-18T17:21:37;15.80;73.70
58809;DHT22;44579;51.672;7.834;2022-10-18T17:24:04;15.70;73.80
58809;DHT22;44579;51.672;7.834;2022-10-18T17:26:32;15.70;73.90
58809;DHT22;44579;51.672;7.834;2022-10-18T17:29:03;15.60;74.10
58809;DHT22;44579;51.672;7.834;2022-10-18T17:31:31;15.60;74.30
58809;DHT22;44579;51.672;7.834;2022-10-18T17:33:58;15.50;75.20
58809;DHT22;44579;51.672;7.834;2022-10-18T17:36:29;15.40;74.50
58809;DHT22;44579;51.672;7.834;2022-10-18T17:38:57;15.30;74.80
58809;DHT22;44579;51.672;7.834;2022-10-18T17:41:25;15.20;74.70
58809;DHT22;44579;51.672;7.834;2022-10-18T17:43:52;15.30;74.90
58809;DHT22;44579;51.672;7.834;2022-10-18T17:46:19;15.20;74.90
58809;DHT22;44579;51.672;7.834;2022-10-18T17:48:47;15.10;74.90
58809;DHT22;44579;51.672;7.834;2022-10-18T17:51:15;15.10;74.90
58809;DHT22;44579;51.672;7.834;2022-10-18T17:53:43;15.00;75.00
58809;DHT22;44579;51.672;7.834;2022-10-18T17:56:11;15.00;75.10
58809;DHT22;44579;51.672;7.834;2022-10-18T17:58:39;14.90;75.10
58809;DHT22;44579;51.672;7.834;2022-10-18T18:01:11;14.90;75.20
58809;DHT22;44579;51.672;7.834;2022-10-18T18:03:40;14.90;75.30
58809;DHT22;44579;51.672;7.834;2022-10-18T18:06:15;14.80;75.40
58809;DHT22;44579;51.672;7.834;2022-10-18T18:08:42;14.80;75.40
58809;DHT22;44579;51.672;7.834;2022-10-18T18:11:10;14.70;75.80
58809;DHT22;44579;51.672;7.834;2022-10-18T18:13:37;14.70;76.00
58809;DHT22;44579;51.672;7.834;2022-10-18T18:16:12;14.70;75.80
58809;DHT22;44579;51.672;7.834;2022-10-18T18:18:39;14.70;75.80